Thunder radar more information blitzortung!


Rain radar more information rain snow radar


Equipment we use:

Davis VP2

Weather Display

BareMetal


Weather Underground History page Text

Daily Summary for February 17, 2019 Units:  Metric    English   Both
« Previous Day
Next Day »
Daily Weekly Monthly Yearly Custom
  Current: High: Low: Average:
Temperature: -17.1 °C -17.8 °C -18.4 °C -15.9 °C
Dew Point: -18.8 °C -17.8 °C -19.1 °C -16.9 °C
Humidity: 79 % Humidity % 70 % 88 %
Wind Speed: 9 km/h 0 km/h 0 km/h 5.6 km/h
Wind Gust: 4.2 km/h 0 km/h - -
Wind:ENE - - West
Pressure: 34818.2 hPa 0 hPa 34364.5 hPa -
Precipitation: 0 mm      
Historical Graphs
 
 
Tabular Data for February 17, 2019
Time Temperature Dew Point Pressure Wind Wind Speed Wind Gust Humidity Rainfall Rate (Hourly)
-17.8 °C -17.8 °C 0 hPa Calm     Humidity % 0 mm
00:04 -15.5 °C -16 °C 34364.5 hPa NW 11.9 km/h 6.9 km/h 94 % 0 mm
00:09 -15.5 °C -16 °C 34364.5 hPa WNW 17.9 km/h 10.6 km/h 94 % 0 mm
00:14 -15.5 °C -16 °C 34364.5 hPa WNW 11.9 km/h 5.6 km/h 94 % 0 mm
00:19 -15.6 °C -16.1 °C 34367.9 hPa WNW 15 km/h 8 km/h 94 % 0 mm
00:24 -15.6 °C -16.1 °C 34371.3 hPa WNW 15 km/h 7.2 km/h 94 % 0 mm
00:29 -15.6 °C -16.1 °C 34374.7 hPa WNW 12.9 km/h 7.2 km/h 94 % 0 mm
00:34 -15.6 °C -16 °C 34378.1 hPa WNW 17.9 km/h 6.3 km/h 95 % 0 mm
00:39 -15.7 °C -16.1 °C 34381.4 hPa WNW 9 km/h 5.5 km/h 95 % 0 mm
00:44 -15.7 °C -16.1 °C 34384.8 hPa WNW 11.9 km/h 10.1 km/h 95 % 0 mm
00:49 -15.7 °C -16.1 °C 34388.2 hPa WNW 9 km/h 5.5 km/h 95 % 0 mm
00:54 -15.7 °C -16.1 °C 34388.2 hPa WNW 12.9 km/h 6 km/h 95 % 0 mm
00:59 -15.7 °C -16.1 °C 34391.6 hPa NW 7.7 km/h 3.1 km/h 95 % 0 mm
01:04 -15.7 °C -16.1 °C 34395 hPa NW 10.3 km/h 4.2 km/h 95 % 0 mm
01:09 -15.7 °C -16.1 °C 34398.4 hPa WNW 20.9 km/h 8.9 km/h 95 % 0 mm
01:14 -15.7 °C -16.1 °C 34398.4 hPa WNW 11.9 km/h 4.2 km/h 95 % 0 mm
01:19 -15.7 °C -16.1 °C 34398.4 hPa NW 9 km/h 5.5 km/h 95 % 0 mm
01:24 -15.7 °C -16.1 °C 34401.8 hPa WNW 9 km/h 7.2 km/h 95 % 0 mm
01:29 -15.7 °C -16.1 °C 34405.1 hPa WNW 10.3 km/h 5.5 km/h 95 % 0 mm
01:34 -15.7 °C -16.1 °C 34405.1 hPa WNW 11.9 km/h 5 km/h 95 % 0 mm
01:39 -15.7 °C -16.2 °C 34408.5 hPa NW 11.9 km/h 3.7 km/h 95 % 0 mm
01:44 -15.8 °C -16.2 °C 34408.5 hPa NW 9 km/h 5.1 km/h 95 % 0 mm
01:49 -15.8 °C -16.2 °C 34408.5 hPa NW 11.9 km/h 5.5 km/h 95 % 0 mm
01:54 -15.8 °C -16.2 °C 34411.9 hPa NW 9 km/h 2.9 km/h 95 % 0 mm
01:59 -15.8 °C -16.2 °C 34408.5 hPa Calm     95 % 0 mm
02:04 -15.8 °C -16.2 °C 34411.9 hPa Calm     96 % 0 mm
02:09 -15.8 °C -16.2 °C 34415.3 hPa Calm     96 % 0 mm
02:14 -15.9 °C -16.2 °C 34418.7 hPa Calm     96 % 0 mm
02:19 -15.9 °C -16.3 °C 34418.7 hPa Calm     95 % 0 mm
02:24 -15.9 °C -16.3 °C 34422.1 hPa Calm     95 % 0 mm
02:29 -15.9 °C -16.3 °C 34425.5 hPa Calm     96 % 0 mm
02:34 -15.9 °C -16.3 °C 34425.5 hPa Calm     96 % 0 mm
02:39 -16 °C -16.3 °C 34428.8 hPa Calm     96 % 0 mm
02:44 -16.2 °C -16.6 °C 34432.2 hPa Calm     95 % 0 mm
02:49 -16.2 °C -16.5 °C 34432.2 hPa Calm     96 % 0 mm
02:54 -16.2 °C -16.6 °C 34435.6 hPa Calm     96 % 0 mm
02:59 -16.2 °C -16.6 °C 34435.6 hPa Calm     96 % 0 mm
03:04 -16.2 °C -16.6 °C 34435.6 hPa Calm     96 % 0 mm
03:09 -16.3 °C -16.6 °C 34439 hPa Calm     96 % 0 mm
03:14 -16.3 °C -16.6 °C 34439 hPa Calm     96 % 0 mm
03:19 -16.3 °C -16.6 °C 34442.4 hPa Calm     96 % 0 mm
03:24 -16.3 °C -16.6 °C 34445.8 hPa Calm     96 % 0 mm
03:29 -16.3 °C -16.6 °C 34449.2 hPa Calm     96 % 0 mm
03:34 -16.3 °C -16.6 °C 34445.8 hPa Calm     96 % 0 mm
03:39 -16.3 °C -16.6 °C 34449.2 hPa Calm     96 % 0 mm
03:44 -16.3 °C -16.6 °C 34449.2 hPa Calm     96 % 0 mm
03:49 -16.3 °C -16.6 °C 34449.2 hPa Calm     96 % 0 mm
03:54 -16.3 °C -16.6 °C 34452.6 hPa Calm     97 % 0 mm
03:59 -16.3 °C -16.6 °C 34452.6 hPa Calm     97 % 0 mm
04:04 -16.3 °C -16.6 °C 34452.6 hPa Calm     97 % 0 mm
04:09 -16.3 °C -16.6 °C 34455.9 hPa Calm     97 % 0 mm
04:14 -16.3 °C -16.6 °C 34459.3 hPa Calm     97 % 0 mm
04:19 -16.3 °C -16.6 °C 34462.7 hPa Calm     97 % 0 mm
04:24 -16.3 °C -16.6 °C 34466.1 hPa Calm     97 % 0 mm
04:29 -16.3 °C -16.5 °C 34466.1 hPa Calm     97 % 0 mm
04:34 -16.3 °C -16.5 °C 34469.5 hPa Calm     97 % 0 mm
04:39 -16.2 °C -16.4 °C 34472.9 hPa Calm     97 % 0 mm
04:44 -16.2 °C -16.4 °C 34476.3 hPa NW 9 km/h 0.5 km/h 97 % 0 mm
04:49 -16.1 °C -16.3 °C 34479.6 hPa Calm     97 % 0 mm
04:54 -16.2 °C -16.4 °C 34483 hPa Calm     97 % 0 mm
04:59 -16.2 °C -16.6 °C 34483 hPa Calm     96 % 0 mm
05:04 -16.3 °C -16.7 °C 34486.4 hPa Calm     96 % 0 mm
05:09 -16.4 °C -16.8 °C 34489.8 hPa Calm     96 % 0 mm
05:14 -16.6 °C -16.8 °C 34493.2 hPa Calm     96 % 0 mm
05:19 -16.6 °C -16.9 °C 34493.2 hPa Calm     96 % 0 mm
05:24 -16.7 °C -17 °C 34493.2 hPa Calm     96 % 0 mm
05:29 -16.8 °C -17.1 °C 34503.3 hPa Calm     96 % 0 mm
05:34 -16.8 °C -17.2 °C 34506.7 hPa Calm     96 % 0 mm
05:39 -16.9 °C -17.2 °C 34506.7 hPa Calm     96 % 0 mm
05:44 -16.9 °C -17.3 °C 34506.7 hPa Calm     96 % 0 mm
05:49 -17.1 °C -17.3 °C 34510.1 hPa Calm     96 % 0 mm
05:54 -17.1 °C -17.4 °C 34513.5 hPa Calm     96 % 0 mm
05:59 -17.2 °C -17.5 °C 34513.5 hPa Calm     96 % 0 mm
06:04 -17.3 °C -17.6 °C 34516.9 hPa Calm     96 % 0 mm
06:09 -17.3 °C -17.7 °C 34516.9 hPa Calm     96 % 0 mm
06:14 -17.4 °C -17.7 °C 34520.3 hPa Calm     96 % 0 mm
06:19 -17.5 °C -17.8 °C 34523.7 hPa Calm     96 % 0 mm
06:24 -17.6 °C -17.9 °C 34527 hPa Calm     96 % 0 mm
06:29 -17.7 °C -18 °C 34527 hPa Calm     96 % 0 mm
06:34 -17.8 °C -18.1 °C 34527 hPa Calm     96 % 0 mm
06:39 -18 °C -18.3 °C 34530.4 hPa Calm     96 % 0 mm
06:44 -18.2 °C -18.4 °C 34533.8 hPa Calm     96 % 0 mm
06:49 -18.2 °C -18.5 °C 34533.8 hPa Calm     96 % 0 mm
06:54 -18.2 °C -18.6 °C 34537.2 hPa Calm     96 % 0 mm
06:59 -18.3 °C -18.6 °C 34537.2 hPa Calm     96 % 0 mm
07:04 -18.3 °C -18.5 °C 34540.6 hPa Calm     97 % 0 mm
07:09 -18.3 °C -18.5 °C 34544 hPa Calm     97 % 0 mm
07:14 -18.4 °C -18.7 °C 34547.4 hPa Calm     96 % 0 mm
07:19 -18.4 °C -18.7 °C 34550.7 hPa Calm     96 % 0 mm
07:24 -18.4 °C -18.7 °C 34554.1 hPa Calm     97 % 0 mm
07:29 -18.4 °C -18.7 °C 34557.5 hPa Calm     97 % 0 mm
07:34 -18.4 °C -18.6 °C 34560.9 hPa Calm     97 % 0 mm
07:39 -18.3 °C -18.6 °C 34560.9 hPa Calm     97 % 0 mm
07:44 -18.4 °C -18.6 °C 34564.3 hPa Calm     97 % 0 mm
07:49 -18.3 °C -18.5 °C 34567.7 hPa Calm     97 % 0 mm
07:54 -18.2 °C -18.4 °C 34571.1 hPa Calm     97 % 0 mm
07:59 -18.2 °C -18.4 °C 34574.4 hPa Calm     97 % 0 mm
08:04 -18.1 °C -18.3 °C 34577.8 hPa Calm     97 % 0 mm
08:09 -18.2 °C -18.4 °C 34584.6 hPa Calm     97 % 0 mm
08:14 -18.2 °C -18.4 °C 34588 hPa Calm     97 % 0 mm
08:19 -18.1 °C -18.4 °C 34588 hPa Calm     97 % 0 mm
08:24 -18 °C -18.3 °C 34591.4 hPa Calm     97 % 0 mm
08:29 -17.9 °C -18.2 °C 34594.8 hPa Calm     97 % 0 mm
08:34 -17.9 °C -18 °C 34598.1 hPa Calm     98 % 0 mm
08:39 -17.7 °C -17.9 °C 34601.5 hPa NW 5.1 km/h 1 km/h 98 % 0 mm
08:44 -17.7 °C -17.8 °C 34601.5 hPa Calm     98 % 0 mm
08:49 -17.7 °C -17.8 °C 34601.5 hPa Calm     98 % 0 mm
08:54 -17.6 °C -17.8 °C 34604.9 hPa Calm     98 % 0 mm
08:59 -17.6 °C -17.7 °C 34608.3 hPa Calm     98 % 0 mm
09:04 -17.4 °C -17.6 °C 34608.3 hPa Calm     98 % 0 mm
09:09 -17.3 °C -17.4 °C 34611.7 hPa Calm     98 % 0 mm
09:14 -17.2 °C -17.3 °C 34618.5 hPa Calm     98 % 0 mm
09:19 -17.1 °C -17.3 °C 34621.9 hPa NW 3.1 km/h 1 km/h 98 % 0 mm
09:24 -17 °C -17.2 °C 34621.9 hPa NW 6 km/h 3.4 km/h 98 % 0 mm
09:29 -16.9 °C -17.1 °C 34625.2 hPa NW 9 km/h 2.1 km/h 98 % 0 mm
09:34 -16.8 °C -17 °C 34628.6 hPa Calm     98 % 0 mm
09:39 -16.7 °C -16.8 °C 34625.2 hPa Calm     98 % 0 mm
09:44 -16.4 °C -16.6 °C 34628.6 hPa Calm     98 % 0 mm
09:50 -16.3 °C -16.5 °C 34632 hPa Calm     98 % 0 mm
09:54 -16.3 °C -16.4 °C 34635.4 hPa Calm     98 % 0 mm
09:59 -16.3 °C -16.4 °C 34635.4 hPa NW 5.1 km/h 1.8 km/h 98 % 0 mm
10:04 -16.2 °C -16.5 °C 34635.4 hPa Calm     97 % 0 mm
10:09 -16.1 °C -16.2 °C 34638.8 hPa Calm     98 % 0 mm
10:14 -16 °C -16.2 °C 34638.8 hPa Calm     97 % 0 mm
10:19 -15.9 °C -16.2 °C 34642.2 hPa Calm     97 % 0 mm
10:24 -15.9 °C -16.2 °C 34642.2 hPa Calm     96 % 0 mm
10:29 -15.7 °C -16 °C 34642.2 hPa Calm     96 % 0 mm
10:34 -15.4 °C -15.7 °C 34642.2 hPa Calm     96 % 0 mm
10:39 -15.2 °C -15.7 °C 34645.6 hPa NW 7.7 km/h 4.3 km/h 95 % 0 mm
10:44 -15.2 °C -15.7 °C 34645.6 hPa Calm     94 % 0 mm
10:49 -15.1 °C -15.7 °C 34645.6 hPa Calm     92 % 0 mm
10:54 -14.9 °C -15.7 °C 34645.6 hPa NW 9 km/h 0.8 km/h 91 % 0 mm
10:59 -14.9 °C -15.8 °C 34648.9 hPa SW 15 km/h 8 km/h 89 % 0 mm
11:04 -14.9 °C -15.8 °C 34648.9 hPa West 9 km/h 6.3 km/h 89 % 0 mm
11:09 -14.8 °C -15.8 °C 34652.3 hPa WNW 9 km/h 4.3 km/h 88 % 0 mm
11:14 -14.8 °C -15.9 °C 34655.7 hPa West 15 km/h 10.1 km/h 87 % 0 mm
11:19 -14.8 °C -15.9 °C 34655.7 hPa NW 15 km/h 6.9 km/h 87 % 0 mm
11:24 -14.8 °C -16 °C 34662.5 hPa WSW 20.9 km/h 18.2 km/h 86 % 0 mm
11:29 -14.8 °C -16.1 °C 34665.9 hPa West 20.9 km/h 10.9 km/h 86 % 0 mm
11:34 -14.8 °C -16 °C 34665.9 hPa West 23.8 km/h 13.7 km/h 86 % 0 mm
11:39 -14.8 °C -15.9 °C 34665.9 hPa West 23.3 km/h 8 km/h 86 % 0 mm
11:44 -14.8 °C -16.1 °C 34665.9 hPa NW 25.9 km/h 12.9 km/h 85 % 0 mm
11:49 -14.8 °C -16.1 °C 34665.9 hPa WSW 17.9 km/h 10.1 km/h 85 % 0 mm
11:54 -14.8 °C -16.1 °C 34665.9 hPa WNW 26.9 km/h 12.2 km/h 85 % 0 mm
11:59 -14.8 °C -16.1 °C 34665.9 hPa West 17.9 km/h 13.7 km/h 85 % 0 mm
12:04 -14.8 °C -16.1 °C 34665.9 hPa SW 29.8 km/h 14.5 km/h 85 % 0 mm
12:09 -14.7 °C -16.1 °C 34665.9 hPa WNW 15 km/h 11.6 km/h 84 % 0 mm
12:14 -14.7 °C -16.1 °C 34669.3 hPa West 11.9 km/h 6.4 km/h 84 % 0 mm
12:19 -14.7 °C -16.2 °C 34669.3 hPa WSW 20.9 km/h 13.7 km/h 83 % 0 mm
12:24 -14.7 °C -16.2 °C 34669.3 hPa West 17.9 km/h 14.8 km/h 83 % 0 mm
12:29 -14.7 °C -16.3 °C 34669.3 hPa WSW 26.9 km/h 11.9 km/h 82 % 0 mm
12:34 -14.7 °C -16.3 °C 34669.3 hPa West 15.6 km/h 11.9 km/h 82 % 0 mm
12:39 -14.7 °C -16.2 °C 34669.3 hPa WSW 20.8 km/h 14 km/h 82 % 0 mm
12:44 -14.7 °C -16.2 °C 34669.3 hPa WSW 20.9 km/h 6.8 km/h 82 % 0 mm
12:49 -14.6 °C -16.3 °C 34672.6 hPa WNW 23.8 km/h 8.9 km/h 81 % 0 mm
12:54 -14.6 °C -16.3 °C 34669.3 hPa West 17.9 km/h 14.2 km/h 81 % 0 mm
12:59 -14.6 °C -16.3 °C 34669.3 hPa WNW 26.9 km/h 10.9 km/h 81 % 0 mm
13:04 -14.7 °C -16.4 °C 34669.3 hPa SW 17.9 km/h 9.7 km/h 80 % 0 mm
13:09 -14.6 °C -16.3 °C 34669.3 hPa West 20.9 km/h 9.7 km/h 81 % 0 mm
13:14 -14.6 °C -16.3 °C 34665.9 hPa NW 15 km/h 3.4 km/h 81 % 0 mm
13:19 -14.5 °C -16.2 °C 34665.9 hPa NW 11.9 km/h 6.8 km/h 80 % 0 mm
13:24 -14.4 °C -16.3 °C 34665.9 hPa NW 17.9 km/h 9 km/h 79 % 0 mm
13:29 -14.4 °C -16.3 °C 34665.9 hPa West 15.6 km/h 9 km/h 79 % 0 mm
13:34 -14.4 °C -16.3 °C 34665.9 hPa West 10.3 km/h 8 km/h 79 % 0 mm
13:39 -14.4 °C -16.3 °C 34669.3 hPa West 15 km/h 6 km/h 79 % 0 mm
13:44 -14.4 °C -16.4 °C 34669.3 hPa SW 17.9 km/h 10.9 km/h 78 % 0 mm
13:49 -14.5 °C -16.3 °C 34669.3 hPa WSW 17.9 km/h 9 km/h 79 % 0 mm
13:54 -14.5 °C -16.3 °C 34669.3 hPa WSW 10.3 km/h 8.5 km/h 79 % 0 mm
13:59 -14.4 °C -16.3 °C 34665.9 hPa SW 11.9 km/h 8.9 km/h 79 % 0 mm
14:05 -14.4 °C -16.3 °C 34665.9 hPa West 9 km/h 6.3 km/h 79 % 0 mm
14:09 -14.4 °C -16.3 °C 34669.3 hPa WSW 10.3 km/h 5 km/h 79 % 0 mm
14:14 -14.4 °C -16.3 °C 34669.3 hPa WSW 15.6 km/h 14.8 km/h 78 % 0 mm
14:19 -14.4 °C -16.4 °C 34665.9 hPa West 17.9 km/h 10.3 km/h 78 % 0 mm
14:24 -14.4 °C -16.3 °C 34669.3 hPa WNW 15 km/h 11.4 km/h 79 % 0 mm
14:29 -14.4 °C -16.3 °C 34669.3 hPa WSW 15 km/h 9.7 km/h 79 % 0 mm
14:34 -14.4 °C -16.3 °C 34672.6 hPa SW 17.9 km/h 11.6 km/h 79 % 0 mm
14:39 -14.4 °C -16.2 °C 34672.6 hPa WSW 20.9 km/h 14.8 km/h 80 % 0 mm
14:44 -14.4 °C -16.2 °C 34672.6 hPa West 15 km/h 13.2 km/h 80 % 0 mm
14:49 -14.5 °C -16.2 °C 34672.6 hPa WNW 15 km/h 10.9 km/h 80 % 0 mm
14:54 -14.5 °C -16.2 °C 34676 hPa WSW 20.9 km/h 10.9 km/h 80 % 0 mm
14:59 -14.4 °C -16.3 °C 34676 hPa West 17.9 km/h 14.2 km/h 79 % 0 mm
15:04 -14.4 °C -16.4 °C 34679.4 hPa WSW 18.2 km/h 8.9 km/h 78 % 0 mm
15:09 -14.4 °C -16.3 °C 34679.4 hPa WNW 15.6 km/h 14 km/h 78 % 0 mm
15:14 -14.4 °C -16.4 °C 34676 hPa WNW 9 km/h 7.7 km/h 78 % 0 mm
15:19 -14.4 °C -16.3 °C 34676 hPa NW 9 km/h 6.3 km/h 79 % 0 mm
15:24 -14.4 °C -16.3 °C 34676 hPa WNW 9 km/h 6.4 km/h 78 % 0 mm
15:29 -14.3 °C -16.3 °C 34676 hPa WSW 9 km/h 3.4 km/h 78 % 0 mm
15:34 -14.3 °C -16.3 °C 34676 hPa WSW 11.9 km/h 11.9 km/h 78 % 0 mm
15:39 -14.3 °C -16.3 °C 34679.4 hPa WSW 11.9 km/h 9.7 km/h 78 % 0 mm
15:44 -14.3 °C -16.4 °C 34682.8 hPa West 11.9 km/h 6 km/h 77 % 0 mm
15:49 -14.3 °C -16.2 °C 34682.8 hPa West 9 km/h 7.7 km/h 78 % 0 mm
15:54 -14.3 °C -16.3 °C 34686.2 hPa WSW 15 km/h 10.1 km/h 77 % 0 mm
15:59 -14.3 °C -16.3 °C 34689.6 hPa West 9 km/h 4.2 km/h 77 % 0 mm
16:04 -14.3 °C -16.3 °C 34689.6 hPa WNW 9 km/h 6.3 km/h 77 % 0 mm
16:09 -14.2 °C -16.3 °C 34689.6 hPa SW 9 km/h 5 km/h 77 % 0 mm
16:14 -14.2 °C -16.4 °C 34693 hPa WNW 9 km/h 8.2 km/h 76 % 0 mm
16:19 -14.2 °C -16.2 °C 34689.6 hPa WNW 9 km/h 7.7 km/h 77 % 0 mm
16:24 -14.1 °C -16.2 °C 34693 hPa WNW 6 km/h 1.8 km/h 77 % 0 mm
16:29 -14.1 °C -16.3 °C 34689.6 hPa WNW 6 km/h 7.7 km/h 76 % 0 mm
16:34 -14.1 °C -16.3 °C 34689.6 hPa WNW 9 km/h 6.8 km/h 76 % 0 mm
16:39 -14.1 °C -16.3 °C 34693 hPa West 9 km/h 3.9 km/h 76 % 0 mm
16:44 -14.1 °C -16.3 °C 34693 hPa West 9 km/h 6.4 km/h 76 % 0 mm
16:49 -14.2 °C -16.3 °C 34696.3 hPa WSW 9 km/h 3.4 km/h 76 % 0 mm
16:54 -14.2 °C -16.3 °C 34696.3 hPa West 9 km/h 6.3 km/h 77 % 0 mm
16:59 -14.3 °C -16.3 °C 34696.3 hPa WSW 12.9 km/h 7.6 km/h 77 % 0 mm
17:05 -14.4 °C -16.4 °C 34696.3 hPa WSW 9 km/h 6 km/h 77 % 0 mm
17:09 -14.5 °C -16.4 °C 34696.3 hPa WSW 9 km/h 6.3 km/h 78 % 0 mm
17:14 -14.6 °C -16.5 °C 34696.3 hPa West 6 km/h   78 % 0 mm
17:20 -14.6 °C -16.5 °C 34699.7 hPa West 9 km/h 4.2 km/h 79 % 0 mm
17:24 -14.7 °C -16.6 °C 34703.1 hPa West 7.7 km/h 5 km/h 79 % 0 mm
17:29 -14.7 °C -16.5 °C 34706.5 hPa West 6 km/h   80 % 0 mm
17:34 -14.8 °C -16.4 °C 34706.5 hPa Calm     81 % 0 mm
17:39 -14.8 °C -16.4 °C 34706.5 hPa West 6 km/h   81 % 0 mm
17:44 -14.8 °C -16.5 °C 34709.9 hPa West 9 km/h 6.4 km/h 81 % 0 mm
17:49 -14.9 °C -16.5 °C 34706.5 hPa Calm     82 % 0 mm
17:54 -14.9 °C -16.5 °C 34709.9 hPa Calm   1 km/h 82 % 0 mm
17:59 -14.9 °C -16.4 °C 34713.3 hPa West 2.6 km/h 1.6 km/h 83 % 0 mm
18:04 -14.9 °C -16.4 °C 34713.3 hPa Calm     83 % 0 mm
18:09 -14.9 °C -16.3 °C 34716.7 hPa Calm     84 % 0 mm
18:14 -14.9 °C -16.3 °C 34720 hPa West 5.1 km/h 2.3 km/h 84 % 0 mm
18:19 -14.9 °C -16.3 °C 34720 hPa Calm     84 % 0 mm
18:24 -14.9 °C -16.3 °C 34720 hPa Calm     84 % 0 mm
18:29 -14.9 °C -16.4 °C 34723.4 hPa Calm     83 % 0 mm
18:34 -15.1 °C -16.6 °C 34723.4 hPa Calm     83 % 0 mm
18:39 -15.1 °C -16.5 °C 34726.8 hPa Calm     84 % 0 mm
18:44 -15.2 °C -16.6 °C 34726.8 hPa Calm     84 % 0 mm
18:49 -15.2 °C -16.6 °C 34733.6 hPa Calm     84 % 0 mm
18:54 -15.3 °C -16.6 °C 34733.6 hPa Calm     85 % 0 mm
18:59 -15.4 °C -16.6 °C 34733.6 hPa Calm     85 % 0 mm
19:04 -15.4 °C -16.6 °C 34737 hPa Calm     86 % 0 mm
19:09 -15.5 °C -16.7 °C 34740.4 hPa Calm     86 % 0 mm
19:14 -15.4 °C -16.5 °C 34740.4 hPa Calm     87 % 0 mm
19:19 -15.4 °C -16.6 °C 34740.4 hPa Calm     87 % 0 mm
19:24 -15.6 °C -16.7 °C 34743.7 hPa Calm     86 % 0 mm
19:29 -15.7 °C -16.8 °C 34740.4 hPa Calm     86 % 0 mm
19:34 -15.7 °C -16.8 °C 34743.7 hPa Calm     87 % 0 mm
19:39 -15.8 °C -16.9 °C 34743.7 hPa Calm     87 % 0 mm
19:44 -15.9 °C -16.8 °C 34743.7 hPa Calm     88 % 0 mm
19:49 -15.9 °C -16.9 °C 34747.1 hPa Calm     88 % 0 mm
19:54 -15.9 °C -16.8 °C 34747.1 hPa Calm     89 % 0 mm
19:59 -15.7 °C -16.4 °C 34750.5 hPa Calm     91 % 0 mm
20:04 -15.6 °C -16.5 °C 34750.5 hPa Calm     89 % 0 mm
20:09 -15.7 °C -16.7 °C 34750.5 hPa Calm     88 % 0 mm
20:14 -15.8 °C -16.9 °C 34747.1 hPa Calm     87 % 0 mm
20:19 -16 °C -17 °C 34750.5 hPa Calm     88 % 0 mm
20:24 -16.1 °C -17.1 °C 34750.5 hPa Calm     88 % 0 mm
20:29 -16.2 °C -17.1 °C 34753.9 hPa Calm     89 % 0 mm
20:34 -16.3 °C -17.2 °C 34753.9 hPa Calm     89 % 0 mm
20:39 -16.2 °C -16.9 °C 34757.3 hPa Calm     91 % 0 mm
20:44 -16.1 °C -16.9 °C 34760.7 hPa Calm     90 % 0 mm
20:49 -16.2 °C -17.1 °C 34760.7 hPa Calm     90 % 0 mm
20:54 -16.3 °C -17.3 °C 34760.7 hPa Calm     89 % 0 mm
20:59 -16.5 °C -17.3 °C 34764.1 hPa West 9 km/h 2.6 km/h 90 % 0 mm
21:04 -16.6 °C -17.3 °C 34764.1 hPa West 6 km/h 1 km/h 91 % 0 mm
21:09 -16.6 °C -17.3 °C 34767.4 hPa Calm     91 % 0 mm
21:14 -16.7 °C -17.4 °C 34770.8 hPa Calm     91 % 0 mm
21:19 -16.6 °C -17.3 °C 34770.8 hPa Calm     92 % 0 mm
21:24 -16.6 °C -17.2 °C 34774.2 hPa Calm     92 % 0 mm
21:29 -16.7 °C -17.4 °C 34777.6 hPa SW 9 km/h 6 km/h 91 % 0 mm
21:34 -16.8 °C -17.4 °C 34777.6 hPa SSW 3.1 km/h   92 % 0 mm
21:39 -16.8 °C -17.4 °C 34781 hPa Calm     92 % 0 mm
21:44 -16.8 °C -17.4 °C 34784.4 hPa Calm     92 % 0 mm
21:49 -16.8 °C -17.4 °C 34787.8 hPa Calm     92 % 0 mm
21:54 -16.8 °C -17.4 °C 34787.8 hPa Calm     92 % 0 mm
21:59 -16.8 °C -17.5 °C 34791.2 hPa SSW 6 km/h 3.7 km/h 92 % 0 mm
22:04 -16.8 °C -17.7 °C 34791.2 hPa ESE 11.9 km/h 4.7 km/h 90 % 0 mm
22:09 -16.8 °C -17.9 °C 34791.2 hPa ESE 10.3 km/h 1.8 km/h 86 % 0 mm
22:14 -16.7 °C -18.2 °C 34794.5 hPa ESE 5.1 km/h 2.1 km/h 82 % 0 mm
22:19 -16.6 °C -18.5 °C 34791.2 hPa East 9 km/h 6.8 km/h 78 % 0 mm
22:24 -16.4 °C -18.7 °C 34794.5 hPa ENE 11.9 km/h 6.9 km/h 74 % 0 mm
22:29 -16.3 °C -18.9 °C 34797.9 hPa ENE 9 km/h 8 km/h 71 % 0 mm
22:34 -16.2 °C -19 °C 34797.9 hPa ENE 9 km/h 6.4 km/h 70 % 0 mm
22:39 -16.3 °C -19.1 °C 34801.3 hPa ENE 9 km/h 0.5 km/h 70 % 0 mm
22:44 -16.3 °C -19.1 °C 34801.3 hPa ENE 6 km/h 1.3 km/h 70 % 0 mm
22:49 -16.4 °C -19.1 °C 34804.7 hPa Calm     71 % 0 mm
22:54 -16.5 °C -19.1 °C 34804.7 hPa Calm     72 % 0 mm
22:59 -16.6 °C -19 °C 34811.5 hPa Calm     73 % 0 mm
23:04 -16.6 °C -18.9 °C 34808.1 hPa Calm     74 % 0 mm
23:09 -16.7 °C -19.1 °C 34811.5 hPa Calm     73 % 0 mm
23:14 -16.7 °C -19 °C 34811.5 hPa Calm     74 % 0 mm
23:19 -16.7 °C -19.1 °C 34811.5 hPa Calm     74 % 0 mm
23:24 -16.8 °C -19.1 °C 34808.1 hPa Calm     74 % 0 mm
23:29 -16.8 °C -19.1 °C 34811.5 hPa Calm     75 % 0 mm
23:34 -16.9 °C -19.1 °C 34814.9 hPa Calm     76 % 0 mm
23:39 -17.1 °C -19.1 °C 34818.2 hPa Calm     77 % 0 mm
23:44 -17.1 °C -19 °C 34814.9 hPa ENE 6 km/h 4.2 km/h 78 % 0 mm
23:49 -17.1 °C -18.8 °C 34818.2 hPa ENE 9 km/h 4.2 km/h 79 % 0 mm
Ladner Weather
Compliments of Weather Underground - 2.25 mb

Script developed by  Jim McMurry - jmcmurry@mwt.net Adapted for the template by  Wim van der Kuil - Leuven-Template.eu